GIBOR1 LLRD-LLRD
Flight info
| Callsign | GIBOR1 |
|---|---|
| Flight time | 0h 47m |
| Altitude | 41000 |
| Route | SID ATLIT MERHAV 4 |
| Aircraft | F16/L-SDFGHRTY/C |
Departure
| Time | 2026-04-29 16:09 |
|---|---|
| Airport | Ramat David Air Base (LLRD) |
Arrival
| Time | 2026-04-29 16:57 |
|---|---|
| Airport | Ramat David Air Base (LLRD) |
| Time | Latitude | Longitude | Altitude | Speed | Heading |
|---|---|---|---|---|---|
| 2026-04-29 16:09 | 32.69149 | 34.94614 | 7262 ft | 354 kts | 277° |
| 2026-04-29 16:09 | 32.69179 | 34.91765 | 7383 ft | 345 kts | 240° |
| 2026-04-29 16:10 | 32.62341 | 34.87780 | 8671 ft | 353 kts | 198° |
| 2026-04-29 16:10 | 32.59910 | 34.87275 | 9086 ft | 359 kts | 169° |
| 2026-04-29 16:10 | 32.57544 | 34.88245 | 9547 ft | 366 kts | 155° |
| 2026-04-29 16:11 | 32.55266 | 34.89598 | 10057 ft | 366 kts | 152° |
| 2026-04-29 16:11 | 32.53020 | 34.91058 | 10558 ft | 371 kts | 151° |
| 2026-04-29 16:11 | 32.50761 | 34.92558 | 11063 ft | 373 kts | 151° |
| 2026-04-29 16:11 | 32.48543 | 34.94016 | 11410 ft | 384 kts | 152° |
| 2026-04-29 16:12 | 32.46232 | 34.95498 | 11686 ft | 386 kts | 153° |
| 2026-04-29 16:12 | 32.44593 | 34.96522 | 11574 ft | 387 kts | 154° |
| 2026-04-29 16:12 | 32.41471 | 34.98405 | 11343 ft | 382 kts | 154° |
| 2026-04-29 16:12 | 32.39094 | 34.99809 | 11170 ft | 381 kts | 155° |
| 2026-04-29 16:13 | 32.36725 | 35.01182 | 10998 ft | 378 kts | 155° |
| 2026-04-29 16:13 | 32.34382 | 35.02524 | 11132 ft | 372 kts | 156° |
| 2026-04-29 16:13 | 32.32022 | 35.03844 | 11452 ft | 382 kts | 156° |
| 2026-04-29 16:13 | 32.29688 | 35.05297 | 11448 ft | 373 kts | 144° |
| 2026-04-29 16:14 | 32.27686 | 35.07279 | 12306 ft | 380 kts | 138° |
| 2026-04-29 16:14 | 32.25772 | 35.09500 | 13609 ft | 389 kts | 134° |
| 2026-04-29 16:14 | 32.23904 | 35.11876 | 14821 ft | 400 kts | 131° |
| 2026-04-29 16:14 | 32.22195 | 35.14498 | 16015 ft | 413 kts | 118° |
| 2026-04-29 16:15 | 32.21006 | 35.17589 | 17296 ft | 421 kts | 109° |
| 2026-04-29 16:15 | 32.20082 | 35.20895 | 18593 ft | 427 kts | 105° |
| 2026-04-29 16:15 | 32.19371 | 35.24320 | 19780 ft | 435 kts | 99° |
| 2026-04-29 16:15 | 32.18814 | 35.27882 | 21026 ft | 445 kts | 99° |
| 2026-04-29 16:16 | 32.18228 | 35.31520 | 22328 ft | 454 kts | 100° |
| 2026-04-29 16:16 | 32.17706 | 35.35218 | 23638 ft | 463 kts | 89° |
| 2026-04-29 16:16 | 32.18637 | 35.38811 | 24541 ft | 462 kts | 47° |
| 2026-04-29 16:16 | 32.21206 | 35.40969 | 25564 ft | 457 kts | 19° |
| 2026-04-29 16:17 | 32.24279 | 35.41932 | 26791 ft | 456 kts | 1° |
| 2026-04-29 16:17 | 32.27456 | 35.42162 | 28113 ft | 464 kts | 0° |
| 2026-04-29 16:17 | 32.30700 | 35.42454 | 29484 ft | 472 kts | 1° |
| 2026-04-29 16:17 | 32.34006 | 35.42802 | 30776 ft | 484 kts | 1° |
| 2026-04-29 16:18 | 32.37393 | 35.43197 | 32012 ft | 496 kts | 1° |
| 2026-04-29 16:18 | 32.40903 | 35.43633 | 32686 ft | 518 kts | 2° |
| 2026-04-29 16:18 | 32.43275 | 35.43940 | 32567 ft | 519 kts | 0° |
| 2026-04-29 16:18 | 32.46884 | 35.44160 | 32755 ft | 517 kts | 356° |
| 2026-04-29 16:19 | 32.50406 | 35.43957 | 33250 ft | 506 kts | 344° |
| 2026-04-29 16:19 | 32.53724 | 35.42620 | 33615 ft | 497 kts | 326° |
| 2026-04-29 16:19 | 32.56424 | 35.40134 | 33822 ft | 491 kts | 308° |
| 2026-04-29 16:19 | 32.58251 | 35.36759 | 33919 ft | 487 kts | 290° |
| 2026-04-29 16:20 | 32.58997 | 35.32867 | 33958 ft | 487 kts | 272° |
| 2026-04-29 16:20 | 32.58591 | 35.28926 | 33926 ft | 457 kts | 252° |
| 2026-04-29 16:20 | 32.57108 | 35.25639 | 33965 ft | 460 kts | 233° |
| 2026-04-29 16:20 | 32.54727 | 35.23212 | 33981 ft | 454 kts | 212° |
| 2026-04-29 16:21 | 32.51684 | 35.21937 | 33998 ft | 469 kts | 191° |
| 2026-04-29 16:21 | 32.48414 | 35.21986 | 33993 ft | 486 kts | 172° |
| 2026-04-29 16:21 | 32.45110 | 35.22956 | 34014 ft | 487 kts | 173° |
| 2026-04-29 16:22 | 32.38440 | 35.24010 | 34024 ft | 481 kts | 181° |
| 2026-04-29 16:22 | 32.31706 | 35.24367 | 34018 ft | 479 kts | 184° |
| 2026-04-29 16:23 | 32.25063 | 35.24384 | 33996 ft | 478 kts | 185° |
| 2026-04-29 16:23 | 32.21737 | 35.24757 | 33991 ft | 488 kts | 169° |
| 2026-04-29 16:23 | 32.18584 | 35.26340 | 33995 ft | 502 kts | 149° |
| 2026-04-29 16:23 | 32.15952 | 35.29082 | 33998 ft | 511 kts | 129° |
| 2026-04-29 16:24 | 32.14138 | 35.32702 | 34002 ft | 517 kts | 110° |
| 2026-04-29 16:24 | 32.13338 | 35.36820 | 34001 ft | 517 kts | 90° |
| 2026-04-29 16:24 | 32.13636 | 35.41013 | 34016 ft | 512 kts | 71° |
| 2026-04-29 16:24 | 32.14983 | 35.44831 | 34017 ft | 503 kts | 51° |
| 2026-04-29 16:25 | 32.17239 | 35.47912 | 34016 ft | 490 kts | 32° |
| 2026-04-29 16:25 | 32.20070 | 35.49882 | 34043 ft | 473 kts | 12° |
| 2026-04-29 16:25 | 32.23227 | 35.50609 | 34031 ft | 456 kts | 352° |
| 2026-04-29 16:25 | 32.26283 | 35.50003 | 34031 ft | 441 kts | 333° |
| 2026-04-29 16:26 | 32.29070 | 35.48550 | 34046 ft | 437 kts | 329° |
| 2026-04-29 16:26 | 32.34837 | 35.46156 | 34032 ft | 443 kts | 337° |
| 2026-04-29 16:26 | 32.37589 | 35.44620 | 34018 ft | 434 kts | 323° |
| 2026-04-29 16:27 | 32.40097 | 35.42644 | 34029 ft | 433 kts | 322° |
| 2026-04-29 16:27 | 32.45213 | 35.38864 | 34044 ft | 436 kts | 328° |
| 2026-04-29 16:28 | 32.50709 | 35.35888 | 34025 ft | 439 kts | 335° |
| 2026-04-29 16:28 | 32.56533 | 35.33508 | 34020 ft | 441 kts | 338° |
| 2026-04-29 16:29 | 32.62422 | 35.31450 | 34024 ft | 442 kts | 340° |
| 2026-04-29 16:29 | 32.65326 | 35.30291 | 34006 ft | 436 kts | 326° |
| 2026-04-29 16:29 | 32.67692 | 35.28100 | 34001 ft | 428 kts | 306° |
| 2026-04-29 16:29 | 32.69116 | 35.25071 | 34009 ft | 424 kts | 284° |
| 2026-04-29 16:30 | 32.69429 | 35.21601 | 34014 ft | 428 kts | 264° |
| 2026-04-29 16:30 | 32.68567 | 35.18210 | 34014 ft | 437 kts | 243° |
| 2026-04-29 16:30 | 32.66665 | 35.15412 | 34017 ft | 450 kts | 224° |
| 2026-04-29 16:31 | 32.61191 | 35.11651 | 34023 ft | 465 kts | 202° |
| 2026-04-29 16:31 | 32.54796 | 35.09903 | 34022 ft | 472 kts | 193° |
| 2026-04-29 16:32 | 32.48203 | 35.09426 | 34012 ft | 477 kts | 185° |
| 2026-04-29 16:32 | 32.41544 | 35.10139 | 34012 ft | 485 kts | 174° |
| 2026-04-29 16:33 | 32.31603 | 35.12619 | 34011 ft | 487 kts | 172° |
| 2026-04-29 16:33 | 32.28330 | 35.13686 | 33987 ft | 494 kts | 159° |
| 2026-04-29 16:33 | 32.25391 | 35.15844 | 33992 ft | 506 kts | 139° |
| 2026-04-29 16:34 | 32.23133 | 35.19061 | 34004 ft | 514 kts | 120° |
| 2026-04-29 16:34 | 32.21818 | 35.22988 | 34010 ft | 517 kts | 100° |
| 2026-04-29 16:34 | 32.21590 | 35.27200 | 34012 ft | 514 kts | 80° |
| 2026-04-29 16:34 | 32.22462 | 35.31237 | 34013 ft | 507 kts | 60° |
| 2026-04-29 16:35 | 32.24306 | 35.34664 | 34038 ft | 496 kts | 41° |
| 2026-04-29 16:35 | 32.26842 | 35.37343 | 34044 ft | 483 kts | 28° |
| 2026-04-29 16:35 | 32.32699 | 35.40958 | 34039 ft | 475 kts | 19° |
| 2026-04-29 16:36 | 32.38884 | 35.43314 | 34024 ft | 460 kts | 359° |
| 2026-04-29 16:36 | 32.42067 | 35.43518 | 33804 ft | 457 kts | 356° |
| 2026-04-29 16:36 | 32.45283 | 35.43423 | 32146 ft | 463 kts | 352° |
| 2026-04-29 16:37 | 32.48532 | 35.43209 | 29242 ft | 478 kts | 354° |
| 2026-04-29 16:37 | 32.51730 | 35.42454 | 25857 ft | 479 kts | 323° |
| 2026-04-29 16:37 | 32.53023 | 35.39091 | 22837 ft | 468 kts | 258° |
| 2026-04-29 16:37 | 32.51975 | 35.36841 | 22372 ft | 475 kts | 217° |
| 2026-04-29 16:38 | 32.47656 | 35.36260 | 22299 ft | 494 kts | 178° |
| 2026-04-29 16:38 | 32.44227 | 35.36500 | 22267 ft | 496 kts | 178° |
| 2026-04-29 16:38 | 32.40735 | 35.36875 | 22194 ft | 495 kts | 159° |
| 2026-04-29 16:38 | 32.38740 | 35.39932 | 21593 ft | 500 kts | 86° |
| 2026-04-29 16:39 | 32.39765 | 35.43795 | 19230 ft | 489 kts | 48° |
| 2026-04-29 16:39 | 32.42353 | 35.46274 | 18964 ft | 480 kts | 25° |
| 2026-04-29 16:39 | 32.45354 | 35.48048 | 19159 ft | 482 kts | 18° |
| 2026-04-29 16:39 | 32.48632 | 35.48197 | 18942 ft | 482 kts | 341° |
| 2026-04-29 16:40 | 32.51361 | 35.45992 | 18660 ft | 482 kts | 315° |
| 2026-04-29 16:40 | 32.53761 | 35.43208 | 19143 ft | 487 kts | 315° |
| 2026-04-29 16:40 | 32.56180 | 35.40369 | 19035 ft | 479 kts | 315° |
| 2026-04-29 16:40 | 32.58502 | 35.37542 | 19132 ft | 474 kts | 305° |
| 2026-04-29 16:41 | 32.59450 | 35.33823 | 19186 ft | 483 kts | 264° |
| 2026-04-29 16:41 | 32.58103 | 35.30184 | 19077 ft | 494 kts | 227° |
| 2026-04-29 16:41 | 32.55127 | 35.28259 | 19060 ft | 506 kts | 184° |
| 2026-04-29 16:41 | 32.51821 | 35.29472 | 19107 ft | 514 kts | 141° |
| 2026-04-29 16:42 | 32.49525 | 35.32688 | 18997 ft | 510 kts | 119° |
| 2026-04-29 16:42 | 32.47790 | 35.36366 | 19134 ft | 510 kts | 118° |
| 2026-04-29 16:42 | 32.46648 | 35.40252 | 19118 ft | 504 kts | 86° |
| 2026-04-29 16:42 | 32.47798 | 35.44066 | 19154 ft | 495 kts | 45° |
| 2026-04-29 16:43 | 32.50802 | 35.45842 | 18933 ft | 487 kts | 358° |
| 2026-04-29 16:43 | 32.53730 | 35.44229 | 19062 ft | 481 kts | 302° |
| 2026-04-29 16:43 | 32.55212 | 35.40697 | 19142 ft | 491 kts | 295° |
| 2026-04-29 16:43 | 32.56659 | 35.36985 | 18951 ft | 487 kts | 295° |
| 2026-04-29 16:44 | 32.58060 | 35.33352 | 19037 ft | 485 kts | 295° |
| 2026-04-29 16:44 | 32.60513 | 35.31034 | 19136 ft | 486 kts | 358° |
| 2026-04-29 16:44 | 32.63179 | 35.32979 | 20066 ft | 501 kts | 83° |
| 2026-04-29 16:44 | 32.60854 | 35.35166 | 20205 ft | 502 kts | 195° |
| 2026-04-29 16:45 | 32.57486 | 35.34192 | 20206 ft | 510 kts | 195° |
| 2026-04-29 16:45 | 32.54102 | 35.33233 | 20091 ft | 504 kts | 195° |
| 2026-04-29 16:45 | 32.50499 | 35.32214 | 20001 ft | 504 kts | 194° |
| 2026-04-29 16:45 | 32.47223 | 35.31282 | 19958 ft | 501 kts | 197° |
| 2026-04-29 16:46 | 32.44101 | 35.29601 | 20237 ft | 499 kts | 217° |
| 2026-04-29 16:46 | 32.41544 | 35.26788 | 19164 ft | 503 kts | 228° |
| 2026-04-29 16:46 | 32.39148 | 35.23793 | 17683 ft | 503 kts | 228° |
| 2026-04-29 16:46 | 32.36739 | 35.20785 | 16222 ft | 502 kts | 228° |
| 2026-04-29 16:47 | 32.34766 | 35.17339 | 15543 ft | 502 kts | 244° |
| 2026-04-29 16:47 | 32.33174 | 35.13519 | 14934 ft | 501 kts | 244° |
| 2026-04-29 16:47 | 32.30933 | 35.10714 | 14168 ft | 503 kts | 189° |
| 2026-04-29 16:47 | 32.28689 | 35.13090 | 13901 ft | 511 kts | 79° |
| 2026-04-29 16:48 | 32.29662 | 35.17124 | 14308 ft | 505 kts | 71° |
| 2026-04-29 16:48 | 32.30637 | 35.20649 | 14194 ft | 414 kts | 71° |
| 2026-04-29 16:48 | 32.31472 | 35.23642 | 13994 ft | 371 kts | 71° |
| 2026-04-29 16:48 | 32.32281 | 35.26538 | 13833 ft | 371 kts | 71° |
| 2026-04-29 16:49 | 32.33141 | 35.29624 | 13772 ft | 369 kts | 71° |
| 2026-04-29 16:49 | 32.33913 | 35.32397 | 13945 ft | 371 kts | 71° |
| 2026-04-29 16:49 | 32.34718 | 35.35298 | 14139 ft | 373 kts | 71° |
| 2026-04-29 16:49 | 32.35530 | 35.38224 | 14282 ft | 376 kts | 71° |
| 2026-04-29 16:50 | 32.36068 | 35.40165 | 14317 ft | 374 kts | 70° |
| 2026-04-29 16:50 | 32.38564 | 35.42523 | 14655 ft | 370 kts | 2° |
| 2026-04-29 16:50 | 32.41146 | 35.42040 | 14708 ft | 390 kts | 340° |
| 2026-04-29 16:50 | 32.43661 | 35.40844 | 14661 ft | 389 kts | 330° |
| 2026-04-29 16:51 | 32.45918 | 35.39033 | 14570 ft | 389 kts | 322° |
| 2026-04-29 16:51 | 32.48030 | 35.37067 | 14839 ft | 386 kts | 321° |
| 2026-04-29 16:51 | 32.50157 | 35.35059 | 15019 ft | 392 kts | 320° |
| 2026-04-29 16:51 | 32.52266 | 35.33042 | 15065 ft | 394 kts | 320° |
| 2026-04-29 16:52 | 32.54361 | 35.30958 | 14931 ft | 395 kts | 319° |
| 2026-04-29 16:52 | 32.56441 | 35.28843 | 14862 ft | 392 kts | 319° |
| 2026-04-29 16:52 | 32.58510 | 35.26708 | 14642 ft | 398 kts | 318° |
| 2026-04-29 16:52 | 32.60548 | 35.24636 | 12506 ft | 384 kts | 319° |
| 2026-04-29 16:53 | 32.62598 | 35.22593 | 9650 ft | 376 kts | 318° |
| 2026-04-29 16:53 | 32.64569 | 35.20624 | 7019 ft | 363 kts | 319° |
| 2026-04-29 16:53 | 32.66439 | 35.18741 | 4895 ft | 340 kts | 316° |
| 2026-04-29 16:53 | 32.67271 | 35.16332 | 3644 ft | 331 kts | 263° |
| 2026-04-29 16:54 | 32.66089 | 35.14105 | 2874 ft | 340 kts | 228° |
| 2026-04-29 16:54 | 32.64106 | 35.13239 | 2650 ft | 283 kts | 156° |
| 2026-04-29 16:54 | 32.62554 | 35.14456 | 2558 ft | 253 kts | 144° |
| 2026-04-29 16:54 | 32.61195 | 35.15732 | 2551 ft | 256 kts | 137° |
| 2026-04-29 16:55 | 32.60587 | 35.17589 | 2277 ft | 252 kts | 80° |
| 2026-04-29 16:55 | 32.60880 | 35.18887 | 2320 ft | 242 kts | 67° |
| 2026-04-29 16:55 | 32.62150 | 35.20986 | 1875 ft | 233 kts | 24° |
| 2026-04-29 16:55 | 32.63545 | 35.21022 | 1251 ft | 195 kts | 332° |
| 2026-04-29 16:56 | 32.64617 | 35.20117 | 605 ft | 186 kts | 320° |
| 2026-04-29 16:56 | 32.65294 | 35.19537 | 367 ft | 175 kts | 326° |
| 2026-04-29 16:56 | 32.66249 | 35.18752 | 163 ft | 151 kts | 324° |
| 2026-04-29 16:56 | 32.66936 | 35.18169 | 147 ft | 99 kts | 325° |
| 2026-04-29 16:57 | 32.67332 | 35.17835 | 143 ft | 40 kts | 324° |
| 2026-04-29 16:57 | 32.67483 | 35.17683 | 143 ft | 17 kts | 279° |
| 2026-04-29 16:57 | 32.67388 | 35.17641 | 141 ft | 29 kts | 144° |
| 2026-04-29 16:57 | 32.67215 | 35.17791 | 143 ft | 30 kts | 143° |
| 2026-04-29 16:58 | 32.67101 | 35.17888 | 144 ft | 29 kts | 146° |
| 2026-04-29 16:58 | 32.66939 | 35.18024 | 146 ft | 29 kts | 142° |
| 2026-04-29 16:58 | 32.66782 | 35.18156 | 149 ft | 27 kts | 146° |
| 2026-04-29 16:58 | 32.66629 | 35.18281 | 151 ft | 27 kts | 144° |
| 2026-04-29 16:59 | 32.66478 | 35.18409 | 151 ft | 26 kts | 144° |
| 2026-04-29 16:59 | 32.66332 | 35.18533 | 153 ft | 25 kts | 144° |
| 2026-04-29 16:59 | 32.66191 | 35.18652 | 157 ft | 24 kts | 144° |
| 2026-04-29 16:59 | 32.66057 | 35.18766 | 160 ft | 23 kts | 144° |
| 2026-04-29 17:00 | 32.65929 | 35.18873 | 163 ft | 22 kts | 145° |
| 2026-04-29 17:00 | 32.65807 | 35.18975 | 166 ft | 21 kts | 144° |
| 2026-04-29 17:00 | 32.65724 | 35.18985 | 167 ft | 11 kts | 274° |
| 2026-04-29 17:00 | 32.65724 | 35.18849 | 167 ft | 11 kts | 297° |
| 2026-04-29 17:01 | 32.65754 | 35.18839 | 182 ft | 0 kts | 350° |